Time;durP1;ratioP1;P1;durP2;ratioP2;P2;SDS_P1;SDS_P2;PMS_P1;PMS_P2;Temp;Humidity;BMP_temperature;BMP_pressure;BME280_temperature;BME280_humidity;BME280_pressure;Samples;Min_cycle;Max_cycle;Signal;HPM_P1;HPM_P2
2024/01/28 00:02:20;;;;;;;6.00;1.73;;;;;;;2.64;88.25;63196.22;5073163;28;20205;-54
2024/01/28 00:04:45;;;;;;;2.00;1.23;;;;;;;2.44;89.69;63175.03;5073301;28;20267;-56
2024/01/28 00:07:11;;;;;;;4.97;1.90;;;;;;;2.38;90.87;63163.56;5073336;28;20216;-55
2024/01/28 00:09:36;;;;;;;2.63;1.47;;;;;;;2.42;90.74;63172.88;5073326;28;20591;-58
2024/01/28 00:12:02;;;;;;;3.97;1.33;;;;;;;2.50;89.64;63181.03;5055410;28;20216;-60
2024/01/28 00:14:28;;;;;;;3.83;1.33;;;;;;;2.43;90.55;63173.97;5073204;28;20185;-58
2024/01/28 00:16:54;;;;;;;3.43;1.50;;;;;;;2.52;89.42;63183.19;5073011;28;20219;-62
2024/01/28 00:19:20;;;;;;;2.97;1.70;;;;;;;2.43;89.81;63173.97;5038350;28;20193;-60
2024/01/28 00:21:46;;;;;;;4.03;1.40;;;;;;;2.47;89.95;63175.81;5072976;28;20224;-58
2024/01/28 00:24:11;;;;;;;1.27;1.10;;;;;;;2.34;90.29;63164.19;5073135;28;20297;-58
2024/01/28 00:26:39;;;;;;;2.90;1.40;;;;;;;2.42;90.33;63172.88;5054882;28;20674;-60
2024/01/28 00:29:04;;;;;;;2.43;1.40;;;;;;;2.33;90.39;63163.09;5073010;28;20199;-59
2024/01/28 00:31:30;;;;;;;4.73;1.50;;;;;;;2.35;91.04;63164.72;5072768;28;20193;-60
2024/01/28 00:33:55;;;;;;;7.30;1.90;;;;;;;2.47;91.14;63177.75;5054671;28;20566;-59
2024/01/28 00:36:21;;;;;;;11.03;1.80;;;;;;;2.32;91.36;63162.00;5072416;28;20176;-61
2024/01/28 00:38:46;;;;;;;3.60;1.60;;;;;;;2.36;91.41;63163.88;5072355;28;20201;-59
2024/01/28 00:41:23;;;;;;;6.80;1.90;;;;;;;2.26;91.27;63153.03;5071755;28;20277;-55
2024/01/28 00:43:49;;;;;;;1.90;1.40;;;;;;;2.23;92.46;63149.22;5072194;28;20212;-54
2024/01/28 00:46:16;;;;;;;3.40;1.60;;;;;;;2.39;91.47;63171.56;5072796;28;20193;-59
2024/01/28 00:48:41;;;;;;;4.80;1.60;;;;;;;2.27;92.52;63156.59;5072632;28;20209;-60
2024/01/28 00:51:07;;;;;;;2.83;1.40;;;;;;;2.29;92.54;63158.78;5072502;28;20200;-60
2024/01/28 00:53:32;;;;;;;1.90;1.27;;;;;;;2.25;93.59;63156.38;5072389;28;20628;-59
2024/01/28 00:55:58;;;;;;;5.47;1.80;;;;;;;2.26;93.54;63153.03;5054536;28;20242;-59
2024/01/28 00:58:23;;;;;;;4.53;1.80;;;;;;;2.27;93.54;63153.56;5054606;28;20287;-57
2024/01/28 01:00:49;;;;;;;4.67;1.90;;;;;;;2.24;93.48;63152.81;5072098;28;20220;-57
2024/01/28 01:03:15;;;;;;;1.70;1.40;;;;;;;2.24;94.47;63155.28;5072020;28;20217;-56
2024/01/28 01:05:41;;;;;;;2.30;1.57;;;;;;;2.20;94.95;63148.47;5072681;28;20181;-58
2024/01/28 01:08:08;;;;;;;2.63;1.60;;;;;;;2.32;94.51;63159.00;5072445;28;20216;-61
2024/01/28 01:10:34;;;;;;;5.73;1.90;;;;;;;2.18;95.71;63146.81;5054358;28;20200;-59
2024/01/28 01:12:59;;;;;;;3.60;1.60;;;;;;;2.15;96.27;63140.56;5054070;28;20213;-59
2024/01/28 01:15:25;;;;;;;3.20;1.50;;;;;;;2.19;96.42;63147.38;5054347;28;20564;-60
2024/01/28 01:17:50;;;;;;;5.03;1.80;;;;;;;2.05;96.88;63132.19;5071945;28;20292;-59
2024/01/28 01:20:17;;;;;;;5.10;1.70;;;;;;;2.14;97.55;63140.00;5072051;28;20204;-60
2024/01/28 01:22:44;;;;;;;5.77;2.13;;;;;;;2.05;97.83;63132.19;5053716;28;20204;-59
2024/01/28 01:25:12;;;;;;;3.97;1.50;;;;;;;2.02;98.16;63128.94;5071994;28;20180;-57
2024/01/28 01:27:38;;;;;;;2.33;1.77;;;;;;;2.17;98.73;63148.22;5054013;28;20209;-58
2024/01/28 01:30:05;;;;;;;5.17;3.20;;;;;;;2.16;98.20;63144.13;5054149;28;20185;-58
2024/01/28 01:32:30;;;;;;;3.70;2.23;;;;;;;2.08;98.80;63135.44;5071695;28;20212;-57
2024/01/28 01:34:56;;;;;;;4.17;2.00;;;;;;;2.05;99.12;63127.75;5054028;28;20681;-57
2024/01/28 01:37:22;;;;;;;10.03;2.10;;;;;;;1.99;100.00;63125.69;5078916;22;20224;-56
2024/01/28 01:39:48;;;;;;;2.03;1.43;;;;;;;1.99;100.00;63123.19;5053367;28;20197;-57
2024/01/28 01:42:13;;;;;;;6.83;3.27;;;;;;;2.05;100.00;63130.25;5071719;28;20232;-54
2024/01/28 01:44:39;;;;;;;4.50;2.13;;;;;;;2.04;100.00;63131.09;5053501;28;20212;-60
2024/01/28 01:47:04;;;;;;;4.60;2.13;;;;;;;1.97;100.00;63121.03;5071770;28;20207;-59
2024/01/28 01:49:30;;;;;;;5.33;2.03;;;;;;;1.95;100.00;63121.88;5071749;28;20207;-59
2024/01/28 01:51:55;;;;;;;5.80;2.33;;;;;;;1.93;100.00;63122.19;5071628;28;20240;-59
2024/01/28 01:54:21;;;;;;;1.97;1.57;;;;;;;1.90;100.00;63116.44;5053445;28;20192;-60
2024/01/28 01:56:47;;;;;;;3.03;1.90;;;;;;;1.83;100.00;63108.31;5071045;28;20211;-59
2024/01/28 01:59:13;;;;;;;2.23;1.83;;;;;;;1.85;100.00;63110.50;5053486;28;20197;-58
2024/01/28 02:01:39;;;;;;;5.70;1.93;;;;;;;1.83;100.00;63108.31;5071465;28;20180;-59
2024/01/28 02:04:05;;;;;;;6.03;2.20;;;;;;;1.84;100.00;63106.94;5053252;28;20217;-59
2024/01/28 02:06:31;;;;;;;2.13;1.93;;;;;;;1.85;100.00;63108.00;5070222;28;20185;-57
2024/01/28 02:08:57;;;;;;;5.40;2.17;;;;;;;1.82;100.00;63105.28;5071788;28;20678;-57
2024/01/28 02:11:23;;;;;;;4.03;2.30;;;;;;;1.91;100.00;63117.00;5071257;28;20585;-57
2024/01/28 02:13:49;;;;;;;3.87;1.87;;;;;;;1.77;100.00;63102.38;5071601;28;20220;-57
2024/01/28 02:16:15;;;;;;;5.33;2.27;;;;;;;1.75;100.00;63100.19;5071346;28;20193;-57
2024/01/28 02:18:41;;;;;;;5.23;2.17;;;;;;;1.78;100.00;63100.44;5071318;28;20602;-57
2024/01/28 02:21:06;;;;;;;3.97;2.30;;;;;;;1.90;100.00;63115.94;5053170;28;20327;-56
2024/01/28 02:23:32;;;;;;;3.70;1.40;;;;;;;1.78;100.00;63105.38;5053016;28;20247;-54
2024/01/28 02:25:57;;;;;;;2.33;1.80;;;;;;;1.77;100.00;63097.41;5053287;28;20188;-58
2024/01/28 02:28:23;;;;;;;5.97;2.83;;;;;;;1.69;100.00;63091.75;5071464;28;20217;-59
2024/01/28 02:30:49;;;;;;;4.47;2.63;;;;;;;1.73;100.00;63095.53;5070925;28;20217;-54
2024/01/28 02:33:14;;;;;;;3.77;1.83;;;;;;;1.85;100.00;63108.00;5071188;28;20588;-55
2024/01/28 02:35:40;;;;;;;3.60;2.30;;;;;;;1.80;100.00;63105.59;5070820;28;20655;-57
2024/01/28 02:38:06;;;;;;;2.17;1.70;;;;;;;1.76;100.00;63100.75;5053058;28;20266;-57
2024/01/28 02:40:32;;;;;;;7.17;2.50;;;;;;;1.77;100.00;63104.28;5070859;28;20387;-58
2024/01/28 02:42:58;;;;;;;2.03;1.70;;;;;;;1.73;100.00;63099.97;5070780;28;20281;-54
2024/01/28 02:45:24;;;;;;;7.00;2.03;;;;;;;1.64;100.00;63088.25;5070915;28;20647;-54
2024/01/28 02:47:49;;;;;;;3.93;2.57;;;;;;;1.72;100.00;63096.41;5052697;28;20709;-57
2024/01/28 02:50:16;;;;;;;4.53;2.53;;;;;;;1.62;100.00;63086.63;5052888;28;20185;-55
2024/01/28 02:52:42;;;;;;;4.23;2.00;;;;;;;1.66;100.00;63090.41;5070870;28;20765;-56
2024/01/28 02:55:08;;;;;;;4.87;2.03;;;;;;;1.60;100.00;63084.47;5053184;28;20192;-58
2024/01/28 02:57:34;;;;;;;4.97;2.37;;;;;;;1.57;100.00;63081.22;5070931;28;20704;-58
2024/01/28 02:59:59;;;;;;;2.40;2.20;;;;;;;1.66;100.00;63090.97;5052658;28;20185;-59
2024/01/28 03:02:25;;;;;;;2.17;1.60;;;;;;;1.73;100.00;63095.00;5070722;28;20232;-55
2024/01/28 03:04:50;;;;;;;3.17;2.30;;;;;;;1.65;100.00;63086.88;5070421;28;20201;-54
2024/01/28 03:07:16;;;;;;;3.43;2.23;;;;;;;1.75;100.00;63097.72;5071425;28;20232;-54
2024/01/28 03:09:41;;;;;;;6.50;2.13;;;;;;;1.65;100.00;63087.41;5074188;28;20559;-56
2024/01/28 03:12:07;;;;;;;4.83;1.80;;;;;;;1.56;100.00;63080.13;5055965;28;20224;-55
2024/01/28 03:14:33;;;;;;;9.10;2.40;;;;;;;1.55;100.00;63079.06;5074061;28;20215;-57
2024/01/28 03:16:58;;;;;;;3.43;1.97;;;;;;;1.65;100.00;63089.34;5074029;28;20197;-56
2024/01/28 03:19:23;;;;;;;5.17;1.90;;;;;;;1.72;100.00;63091.44;5073991;28;20219;-57
2024/01/28 03:21:49;;;;;;;5.00;2.90;;;;;;;1.53;100.00;63076.34;5073951;28;20686;-56
2024/01/28 03:24:15;;;;;;;4.57;1.90;;;;;;;1.59;100.00;63080.91;5073777;28;20307;-57
2024/01/28 03:26:40;;;;;;;3.43;2.50;;;;;;;1.51;100.00;63077.19;5073905;28;20240;-57
2024/01/28 03:29:07;;;;;;;3.53;2.50;;;;;;;1.60;100.00;63083.91;5073918;28;20188;-59
2024/01/28 03:31:33;;;;;;;3.80;2.20;;;;;;;1.65;100.00;63089.34;5039171;28;20266;-59
2024/01/28 03:34:04;;;;;;;5.60;2.73;;;;;;;1.70;100.00;63097.78;5073670;28;20235;-60
2024/01/28 03:36:30;;;;;;;3.93;2.30;;;;;;;1.62;100.00;63086.09;5073658;28;20184;-59
2024/01/28 03:38:55;;;;;;;5.80;2.00;;;;;;;1.53;100.00;63076.88;5074053;28;20213;-61
2024/01/28 03:41:21;;;;;;;3.33;2.77;;;;;;;1.45;100.00;63065.72;5073580;28;20279;-58
2024/01/28 03:43:47;;;;;;;3.47;2.20;;;;;;;1.54;100.00;63077.97;5073642;28;20220;-60
2024/01/28 03:46:13;;;;;;;4.80;2.30;;;;;;;1.70;100.00;63095.31;5073501;28;20264;-58
2024/01/28 03:48:39;;;;;;;4.70;2.30;;;;;;;1.54;100.00;63077.41;5055968;28;20270;-59
2024/01/28 03:51:06;;;;;;;4.10;2.17;;;;;;;1.57;100.00;63081.22;5073485;28;20214;-57
2024/01/28 03:53:32;;;;;;;3.97;2.10;;;;;;;1.56;100.00;63079.59;5055675;28;20239;-55
2024/01/28 03:55:58;;;;;;;5.23;2.10;;;;;;;1.45;100.00;63065.72;5055420;28;20728;-58
2024/01/28 03:58:23;;;;;;;4.53;2.57;;;;;;;1.55;100.00;63079.06;5055552;28;20702;-58
2024/01/28 04:00:49;;;;;;;3.17;2.47;;;;;;;1.44;100.00;63066.56;5073440;28;20180;-54
2024/01/28 04:03:14;;;;;;;6.17;2.63;;;;;;;1.52;100.00;63073.31;5055372;28;20223;-57
2024/01/28 04:05:40;;;;;;;7.63;2.53;;;;;;;1.47;100.00;63070.38;5073342;28;20579;-59
2024/01/28 04:08:12;;;;;;;4.40;3.00;;;;;;;1.45;100.00;63065.19;5073447;28;20266;-59
2024/01/28 04:10:37;;;;;;;4.00;2.40;;;;;;;1.37;100.00;63056.50;5073218;28;20567;-60
2024/01/28 04:13:04;;;;;;;4.83;2.00;;;;;;;1.40;100.00;63064.72;5073415;28;20770;-57
2024/01/28 04:15:29;;;;;;;4.70;2.50;;;;;;;1.26;100.00;63045.13;5073025;28;20185;-59
2024/01/28 04:17:55;;;;;;;5.67;2.60;;;;;;;1.33;100.00;63055.19;5072396;28;20289;-58
2024/01/28 04:20:21;;;;;;;3.43;2.47;;;;;;;1.24;100.00;63047.91;5055119;28;20648;-56
2024/01/28 04:22:47;;;;;;;3.80;2.30;;;;;;;1.17;100.00;63040.31;5072714;28;20208;-57
2024/01/28 04:25:13;;;;;;;7.00;2.53;;;;;;;1.20;100.00;63040.56;5073043;28;20181;-59
2024/01/28 04:27:39;;;;;;;5.30;2.70;;;;;;;1.25;100.00;63048.47;5073050;28;20208;-59
2024/01/28 04:30:06;;;;;;;3.80;2.57;;;;;;;1.19;100.00;63039.47;5054778;28;20637;-57
2024/01/28 04:32:32;;;;;;;7.93;2.87;;;;;;;1.19;100.00;63039.47;5073007;28;20235;-60
2024/01/28 04:34:57;;;;;;;5.93;2.47;;;;;;;1.19;100.00;63040.00;5054791;28;20590;-58
2024/01/28 04:37:26;;;;;;;9.97;2.53;;;;;;;1.28;100.00;63049.22;5072588;28;20315;-58
2024/01/28 04:39:52;;;;;;;4.53;2.23;;;;;;;1.12;100.00;63031.88;5072764;28;20173;-53
2024/01/28 04:42:23;;;;;;;3.90;2.37;;;;;;;1.06;100.00;63025.94;5072613;28;20227;-56
2024/01/28 04:44:49;;;;;;;5.00;2.40;;;;;;;1.11;100.00;63033.81;5072485;28;20209;-56
2024/01/28 04:47:15;;;;;;;7.60;2.40;;;;;;;0.93;100.00;63011.84;5054746;28;20224;-59
2024/01/28 04:49:41;;;;;;;5.03;2.80;;;;;;;0.85;100.00;63000.69;5072692;28;20196;-58
2024/01/28 04:52:07;;;;;;;5.03;2.20;;;;;;;0.89;100.00;63005.03;5054423;28;20217;-58
2024/01/28 04:54:33;;;;;;;6.13;2.63;;;;;;;0.91;100.00;63012.16;5072578;28;20651;-58
2024/01/28 04:57:01;;;;;;;7.23;2.63;;;;;;;0.97;100.00;63013.69;5072438;28;20205;-58
2024/01/28 04:59:27;;;;;;;6.07;2.30;;;;;;;0.90;100.00;63011.06;5072452;28;20200;-56
2024/01/28 05:01:53;;;;;;;3.57;2.43;;;;;;;0.81;100.00;62998.84;5072296;28;20205;-54
2024/01/28 05:04:19;;;;;;;5.27;2.50;;;;;;;0.87;100.00;63002.34;5072211;28;20208;-54
2024/01/28 05:06:45;;;;;;;6.77;2.30;;;;;;;0.67;100.00;62983.66;5072172;28;20246;-57
2024/01/28 05:09:11;;;;;;;5.20;2.47;;;;;;;0.69;100.00;62985.84;5072289;28;20189;-57
2024/01/28 05:11:36;;;;;;;5.93;2.40;;;;;;;0.72;100.00;62989.66;5072186;28;20196;-57
2024/01/28 05:14:02;;;;;;;4.10;2.50;;;;;;;0.77;100.00;62992.03;5072205;28;20199;-54
2024/01/28 05:16:28;;;;;;;3.53;2.20;;;;;;;0.65;100.00;62981.50;5072173;28;20181;-55
2024/01/28 05:18:54;;;;;;;5.33;2.97;;;;;;;0.69;100.00;62985.84;5054363;28;20278;-55
2024/01/28 05:21:19;;;;;;;5.07;2.40;;;;;;;0.63;100.00;62982.34;5072042;28;20197;-58
2024/01/28 05:23:46;;;;;;;5.07;2.43;;;;;;;0.57;100.00;62973.38;5072047;28;20611;-54
2024/01/28 05:26:13;;;;;;;3.60;2.13;;;;;;;0.62;100.00;62980.75;5072093;28;20193;-58
2024/01/28 05:28:38;;;;;;;4.17;2.70;;;;;;;0.70;100.00;62986.94;5072345;28;20308;-59
2024/01/28 05:31:04;;;;;;;4.83;2.40;;;;;;;0.67;100.00;62983.66;5070989;28;20220;-59
2024/01/28 05:33:33;;;;;;;5.70;2.50;;;;;;;0.60;100.00;62979.13;5053685;28;20592;-58
2024/01/28 05:35:59;;;;;;;2.53;2.33;;;;;;;0.81;100.00;63001.31;5071736;28;20193;-59
2024/01/28 05:38:26;;;;;;;6.17;2.67;;;;;;;0.62;100.00;62975.78;5053707;28;20217;-59
2024/01/28 05:40:52;;;;;;;7.23;3.00;;;;;;;0.68;100.00;62984.75;5071550;28;20655;-59
2024/01/28 05:43:18;;;;;;;5.43;2.50;;;;;;;0.73;100.00;62990.16;5071611;28;20252;-59
2024/01/28 05:45:43;;;;;;;4.23;2.17;;;;;;;0.83;100.00;63001.56;5071728;28;20270;-55
2024/01/28 05:48:09;;;;;;;4.20;2.30;;;;;;;0.78;100.00;62993.66;5071681;28;20213;-59
2024/01/28 05:50:34;;;;;;;6.90;2.07;;;;;;;0.69;100.00;62986.38;5071735;28;20234;-58
2024/01/28 05:53:00;;;;;;;5.27;2.63;;;;;;;0.73;100.00;62990.72;5071974;28;20216;-59
2024/01/28 05:55:25;;;;;;;2.70;2.17;;;;;;;0.64;100.00;62980.97;5071711;28;20181;-59
2024/01/28 05:57:53;;;;;;;3.03;2.00;;;;;;;0.69;100.00;62986.38;5071776;28;20204;-59
2024/01/28 06:00:19;;;;;;;3.47;2.60;;;;;;;0.80;100.00;62997.75;5071382;28;20736;-61
2024/01/28 06:02:45;;;;;;;4.03;2.80;;;;;;;0.79;100.00;62997.22;5071855;28;20214;-60
2024/01/28 06:05:10;;;;;;;11.40;3.03;;;;;;;0.81;100.00;62998.84;5071541;28;20577;-58
2024/01/28 06:07:36;;;;;;;3.73;2.00;;;;;;;0.83;100.00;63004.03;5053360;28;20200;-59
2024/01/28 06:10:02;;;;;;;2.70;2.00;;;;;;;0.69;100.00;62986.38;5071387;28;20212;-60
2024/01/28 06:12:27;;;;;;;4.27;2.90;;;;;;;0.62;100.00;62978.25;5071349;28;20213;-55
2024/01/28 06:14:53;;;;;;;5.53;2.30;;;;;;;0.71;100.00;62988.53;5071307;28;20184;-53
2024/01/28 06:17:18;;;;;;;6.50;2.80;;;;;;;0.72;100.00;62987.16;5071170;28;20205;-54
2024/01/28 06:19:44;;;;;;;2.97;2.30;;;;;;;0.72;100.00;62992.13;5071104;28;20203;-53
2024/01/28 06:22:10;;;;;;;8.27;3.27;;;;;;;0.76;100.00;62990.94;5071348;28;20712;-59
2024/01/28 06:24:36;;;;;;;6.07;3.20;;;;;;;0.83;100.00;63001.00;5071122;28;20220;-61
2024/01/28 06:27:09;;;;;;;6.03;4.33;;;;;;;0.83;100.00;63001.56;5053337;28;20848;-61
2024/01/28 06:29:35;;;;;;;8.40;4.23;;;;;;;0.83;100.00;63001.00;5071044;28;20240;-60
2024/01/28 06:32:00;;;;;;;6.30;3.20;;;;;;;1.04;100.00;63021.28;5052924;28;20612;-59
2024/01/28 06:34:26;;;;;;;8.63;3.10;;;;;;;0.93;100.00;63013.78;5053054;28;20640;-58
2024/01/28 06:36:51;;;;;;;6.97;4.00;;;;;;;1.03;100.00;63022.66;5071139;28;20223;-55
2024/01/28 06:39:17;;;;;;;4.67;3.13;;;;;;;1.05;100.00;63024.84;5071209;28;20192;-56
2024/01/28 06:41:43;;;;;;;7.93;3.53;;;;;;;1.13;100.00;63030.50;5052516;28;20249;-56
2024/01/28 06:44:09;;;;;;;4.17;2.40;;;;;;;1.15;100.00;63033.19;5053050;28;20213;-54
2024/01/28 06:46:34;;;;;;;4.80;2.73;;;;;;;1.09;100.00;63028.66;5070940;28;20350;-53
2024/01/28 06:49:01;;;;;;;4.33;3.33;;;;;;;1.20;100.00;63040.56;5071075;28;20192;-54
2024/01/28 06:51:28;;;;;;;5.23;3.07;;;;;;;1.26;100.00;63044.56;5070731;28;20696;-55
2024/01/28 06:53:53;;;;;;;8.80;3.80;;;;;;;1.30;100.00;63051.94;5070697;28;20220;-60
2024/01/28 06:56:19;;;;;;;6.43;3.40;;;;;;;1.33;100.00;63057.69;5070782;28;20188;-55
2024/01/28 06:58:47;;;;;;;5.37;3.20;;;;;;;1.39;100.00;63059.22;5052832;28;20226;-57
2024/01/28 07:01:12;;;;;;;9.37;3.37;;;;;;;1.37;100.00;63059.00;5070656;28;20185;-55
2024/01/28 07:03:38;;;;;;;6.90;2.97;;;;;;;1.21;100.00;63044.13;5070484;28;20212;-58
2024/01/28 07:06:03;;;;;;;8.47;3.17;;;;;;;1.18;100.00;63041.41;5070762;28;20698;-58
2024/01/28 07:08:29;;;;;;;7.67;2.80;;;;;;;1.20;100.00;63041.09;5070722;28;20220;-57
2024/01/28 07:10:56;;;;;;;7.07;3.40;;;;;;;1.14;100.00;63032.13;5070717;28;20199;-59
2024/01/28 07:13:22;;;;;;;5.50;3.23;;;;;;;1.24;100.00;63047.91;5070680;28;20752;-57
2024/01/28 07:15:49;;;;;;;7.53;3.00;;;;;;;1.13;100.00;63035.47;5070472;28;20576;-56
2024/01/28 07:18:14;;;;;;;10.43;3.43;;;;;;;1.18;100.00;63038.94;5070359;28;20706;-65
2024/01/28 07:20:40;;;;;;;10.43;3.40;;;;;;;1.20;100.00;63041.09;5070557;28;20188;-58
2024/01/28 07:23:06;;;;;;;6.57;3.80;;;;;;;1.28;100.00;63044.81;5070494;28;20721;-59
2024/01/28 07:25:31;;;;;;;4.27;2.87;;;;;;;1.22;100.00;63043.28;5070284;28;20196;-58
2024/01/28 07:27:57;;;;;;;5.20;3.37;;;;;;;1.12;100.00;63034.91;5052490;28;20582;-59
2024/01/28 07:30:26;;;;;;;5.50;3.33;;;;;;;1.29;100.00;63050.88;5070046;28;20219;-58
2024/01/28 07:32:52;;;;;;;7.00;3.93;;;;;;;1.30;100.00;63051.94;5070130;28;20694;-57
2024/01/28 07:35:18;;;;;;;6.33;3.87;;;;;;;1.52;100.00;63075.25;5070166;28;20239;-57
2024/01/28 07:37:43;;;;;;;11.37;3.67;;;;;;;1.57;100.00;63081.22;5052122;28;20305;-56
2024/01/28 07:40:10;;;;;;;7.00;3.27;;;;;;;1.49;100.00;63072.53;5052292;28;20212;-58
2024/01/28 07:42:35;;;;;;;4.47;3.10;;;;;;;1.55;100.00;63081.53;5052347;28;20303;-54
2024/01/28 07:45:01;;;;;;;8.37;3.60;;;;;;;1.52;100.00;63072.75;5069971;28;20300;-56
2024/01/28 07:47:27;;;;;;;5.03;3.30;;;;;;;1.65;100.00;63089.91;5070210;28;20710;-55
2024/01/28 07:49:52;;;;;;;4.67;3.57;;;;;;;1.57;100.00;63078.19;5070048;28;20181;-54
2024/01/28 07:52:18;;;;;;;5.83;3.27;;;;;;;1.75;100.00;63099.66;5069998;28;20549;-59
2024/01/28 07:54:43;;;;;;;4.97;3.20;;;;;;;1.82;100.00;63104.75;5054951;28;20193;-59
2024/01/28 07:57:09;;;;;;;4.60;3.47;;;;;;;1.77;100.00;63104.84;5073358;28;20213;-58
2024/01/28 07:59:34;;;;;;;9.63;4.13;;;;;;;1.73;100.00;63098.03;5073450;28;20191;-58
2024/01/28 08:02:00;;;;;;;4.37;2.60;;;;;;;1.68;100.00;63090.66;5055235;28;20651;-57
2024/01/28 08:04:28;;;;;;;4.47;3.53;;;;;;;1.83;100.00;63110.81;5073190;28;20264;-59
2024/01/28 08:06:55;;;;;;;6.73;3.97;;;;;;;1.65;100.00;63089.91;5073091;28;20706;-56
2024/01/28 08:09:21;;;;;;;5.63;3.20;;;;;;;1.88;100.00;63113.75;5072949;28;20275;-56
2024/01/28 08:11:47;;;;;;;12.77;4.00;;;;;;;1.92;100.00;63118.63;5073025;28;20268;-58
2024/01/28 08:14:13;;;;;;;9.33;3.67;;;;;;;1.73;100.00;63097.47;5080228;22;20628;-59
2024/01/28 08:16:39;;;;;;;10.20;3.40;;;;;;;1.86;100.00;63111.59;5073130;28;20185;-59
2024/01/28 08:19:04;;;;;;;5.73;4.00;;;;;;;1.98;100.00;63124.59;5073203;28;20203;-56
2024/01/28 08:21:31;;;;;;;6.77;3.63;;;;;;;1.96;100.00;63124.91;5072952;28;20629;-58
2024/01/28 08:23:57;;;;;;;6.70;3.70;;;;;;;1.88;100.00;63111.28;5072595;28;20224;-57
2024/01/28 08:26:23;;;;;;;5.77;3.90;;;;;;;2.22;100.00;63150.63;5072921;28;20238;-59
2024/01/28 08:28:49;;;;;;;11.07;4.27;;;;;;;2.20;100.00;63148.47;5072567;28;20662;-58
2024/01/28 08:31:15;;;;;;;5.77;2.93;;;;;;;2.43;99.87;63173.41;5072835;28;20216;-58
2024/01/28 08:33:40;;;;;;;6.17;3.20;;;;;;;2.42;99.23;63172.34;5072647;28;20624;-58
2024/01/28 08:36:06;;;;;;;6.57;4.30;;;;;;;2.16;100.00;63142.16;5072587;28;20181;-58
2024/01/28 08:38:32;;;;;;;3.77;2.80;;;;;;;2.11;100.00;63136.75;5054466;28;20242;-58
2024/01/28 08:40:57;;;;;;;7.43;3.77;;;;;;;1.95;100.00;63121.34;5072587;28;20188;-60
2024/01/28 08:43:23;;;;;;;6.50;3.53;;;;;;;2.06;100.00;63130.78;5072535;28;20682;-59
2024/01/28 08:45:49;;;;;;;10.97;3.10;;;;;;;2.07;100.00;63134.91;5054619;28;20658;-54
2024/01/28 08:48:15;;;;;;;8.17;3.90;;;;;;;2.04;100.00;63133.59;5054301;28;20271;-57
2024/01/28 08:50:40;;;;;;;5.37;3.67;;;;;;;2.15;100.00;63141.09;5072376;28;20193;-57
2024/01/28 08:53:06;;;;;;;5.00;3.53;;;;;;;2.44;100.00;63175.03;5072213;28;20255;-59
2024/01/28 08:55:34;;;;;;;7.87;4.07;;;;;;;2.47;100.00;63175.28;5054288;28;20188;-58
2024/01/28 08:58:00;;;;;;;11.07;3.33;;;;;;;2.48;99.78;63179.38;5054088;28;20219;-57
2024/01/28 09:00:27;;;;;;;8.23;4.27;;;;;;;2.56;99.90;63185.03;5054326;28;20300;-57
2024/01/28 09:02:52;;;;;;;6.50;3.73;;;;;;;2.56;97.93;63185.03;5072021;28;20215;-57
2024/01/28 09:05:18;;;;;;;6.50;3.80;;;;;;;2.50;99.45;63181.03;5054162;28;20283;-57
2024/01/28 09:07:45;;;;;;;7.07;3.50;;;;;;;2.60;98.91;63189.38;5071936;28;20213;-59
2024/01/28 09:10:11;;;;;;;6.87;3.50;;;;;;;2.64;97.26;63190.69;5072101;28;20648;-57
2024/01/28 09:12:37;;;;;;;7.07;3.50;;;;;;;2.57;97.52;63188.59;5072289;28;20265;-59
2024/01/28 09:15:02;;;;;;;8.20;2.80;;;;;;;2.60;98.63;63191.88;5072603;28;20595;-57
2024/01/28 09:17:28;;;;;;;5.87;3.07;;;;;;;2.60;98.40;63191.88;5072194;28;20770;-58
2024/01/28 09:19:54;;;;;;;4.20;2.80;;;;;;;2.73;97.68;63205.97;5072508;28;20689;-59
2024/01/28 09:22:20;;;;;;;5.33;3.00;;;;;;;3.03;94.61;63236.06;5071959;28;20205;-59
2024/01/28 09:24:46;;;;;;;6.03;2.67;;;;;;;2.98;95.07;63230.66;5072158;28;20224;-58
2024/01/28 09:27:12;;;;;;;4.17;2.83;;;;;;;2.86;94.13;63220.09;5071805;28;20211;-56
2024/01/28 09:29:38;;;;;;;4.77;3.10;;;;;;;2.90;93.50;63221.41;5071977;28;20223;-57
2024/01/28 09:32:04;;;;;;;4.63;2.60;;;;;;;2.87;93.81;63215.66;5071890;28;20266;-58
2024/01/28 09:34:29;;;;;;;3.17;2.83;;;;;;;3.04;92.55;63239.66;5072357;28;20580;-59
2024/01/28 09:36:55;;;;;;;5.73;3.43;;;;;;;3.22;92.17;63256.72;5071684;28;20213;-58
2024/01/28 09:39:21;;;;;;;7.43;3.37;;;;;;;3.11;91.86;63247.25;5037271;28;20198;-55
2024/01/28 09:42:10;;;;;;;5.23;3.57;;;;;;;3.30;91.71;63262.34;5071616;28;20679;-55
2024/01/28 09:44:37;;;;;;;5.07;3.27;;;;;;;3.24;89.47;63260.81;5071560;28;20313;-56
2024/01/28 09:47:05;;;;;;;9.37;3.50;;;;;;;3.12;89.43;63248.34;5053565;28;20281;-54
2024/01/28 09:49:39;;;;;;;5.57;3.20;;;;;;;3.37;87.77;63273.00;5053666;28;20214;-55
2024/01/28 09:52:09;;;;;;;8.10;3.97;;;;;;;3.38;87.56;63271.03;5053874;28;20217;-62
2024/01/28 09:54:34;;;;;;;4.87;3.10;;;;;;;3.54;86.13;63290.38;5071840;28;20658;-58
2024/01/28 09:57:01;;;;;;;5.30;3.43;;;;;;;3.39;86.87;63274.63;5071414;28;20218;-60
2024/01/28 09:59:29;;;;;;;8.30;4.20;;;;;;;3.39;86.82;63277.66;5071714;28;20195;-59
2024/01/28 10:01:55;;;;;;;7.17;3.70;;;;;;;3.27;87.41;63262.13;5071293;28;20599;-58
2024/01/28 10:04:21;;;;;;;9.63;3.20;;;;;;;3.27;86.46;63262.13;5071531;28;20221;-60
2024/01/28 10:06:48;;;;;;;6.13;3.27;;;;;;;3.25;86.72;63259.44;5071443;28;20203;-57
2024/01/28 10:09:14;;;;;;;5.70;2.97;;;;;;;3.36;86.67;63276.34;5071369;28;20225;-57
2024/01/28 10:11:39;;;;;;;4.57;3.00;;;;;;;3.68;85.05;63305.59;5071158;28;20271;-57
2024/01/28 10:14:05;;;;;;;10.37;3.87;;;;;;;3.65;85.80;63304.81;5071038;28;20235;-58
2024/01/28 10:16:32;;;;;;;8.77;3.13;;;;;;;3.69;85.26;63309.16;5058206;28;20188;-58
2024/01/28 10:18:57;;;;;;;5.67;3.20;;;;;;;3.62;86.70;63299.06;5033128;28;20204;-58
2024/01/28 10:21:25;;;;;;;6.70;3.97;;;;;;;3.30;88.21;63267.88;5051228;28;20245;-59
2024/01/28 10:23:51;;;;;;;5.83;3.33;;;;;;;3.31;88.29;63268.44;5051334;28;20222;-61
2024/01/28 10:26:16;;;;;;;4.43;3.23;;;;;;;3.29;88.53;63266.78;5016814;28;20189;-59
2024/01/28 10:28:42;;;;;;;7.27;3.50;;;;;;;3.48;88.13;63286.34;5050872;28;20220;-58
2024/01/28 10:31:08;;;;;;;5.07;3.07;;;;;;;3.53;88.50;63291.78;5051194;28;20244;-59
2024/01/28 10:33:34;;;;;;;8.83;3.80;;;;;;;3.40;89.90;63278.75;5032777;28;20217;-58
2024/01/28 10:36:05;;;;;;;3.77;3.10;;;;;;;3.55;88.49;63293.97;5050983;28;20188;-59
2024/01/28 10:38:32;;;;;;;6.17;4.33;;;;;;;3.40;89.45;63276.25;5033287;28;20223;-60
2024/01/28 10:40:59;;;;;;;5.37;3.70;;;;;;;3.43;89.14;63281.47;5050946;28;20197;-60
2024/01/28 10:43:30;;;;;;;8.37;2.90;;;;;;;3.32;86.67;63267.56;5050821;28;20264;-63
2024/01/28 10:45:58;;;;;;;6.20;4.27;;;;;;;3.30;88.24;63267.88;5033206;28;20196;-60
2024/01/28 10:48:24;;;;;;;5.40;3.30;;;;;;;3.38;87.09;63276.56;5050867;28;20351;-59
2024/01/28 10:50:52;;;;;;;4.57;2.90;;;;;;;3.50;86.16;63289.06;5033091;28;20278;-57
2024/01/28 10:53:18;;;;;;;7.40;4.53;;;;;;;3.71;85.94;63313.84;5050787;28;20213;-58
2024/01/28 10:55:44;;;;;;;6.73;3.73;;;;;;;3.95;85.93;63334.94;5050633;28;20193;-57
2024/01/28 10:58:11;;;;;;;7.87;3.97;;;;;;;3.96;86.11;63339.06;5050800;28;20238;-65
2024/01/28 11:00:37;;;;;;;4.93;3.57;;;;;;;3.99;85.23;63339.28;5050603;28;20194;-59
2024/01/28 11:03:07;;;;;;;5.93;3.70;;;;;;;4.20;84.30;63367.13;5050661;28;20243;-59
2024/01/28 11:05:35;;;;;;;12.53;4.67;;;;;;;4.30;84.86;63375.50;5050591;28;20177;-60
2024/01/28 11:08:01;;;;;;;8.23;4.00;;;;;;;4.17;85.60;63361.91;5050735;28;20286;-60
2024/01/28 11:10:28;;;;;;;7.83;4.83;;;;;;;3.90;85.81;63332.00;5032753;28;20222;-60
2024/01/28 11:12:56;;;;;;;8.03;4.63;;;;;;;4.01;85.47;63339.53;5050451;28;20199;-58
2024/01/28 11:15:22;;;;;;;5.90;3.97;;;;;;;3.74;87.75;63312.09;5050483;28;20260;-59
2024/01/28 11:17:48;;;;;;;6.03;3.47;;;;;;;3.96;87.55;63336.03;5050140;28;20759;-62
2024/01/28 11:20:17;;;;;;;5.47;3.53;;;;;;;3.95;86.47;63337.44;5050338;28;20270;-63
2024/01/28 11:22:48;;;;;;;4.47;3.40;;;;;;;3.94;85.41;63333.88;5032349;28;20219;-60
2024/01/28 11:25:22;;;;;;;6.33;3.87;;;;;;;3.67;88.06;63307.53;5050356;28;20213;-61
2024/01/28 11:27:50;;;;;;;5.13;3.53;;;;;;;3.38;91.21;63276.56;5050259;28;20216;-55
2024/01/28 11:30:22;;;;;;;4.73;3.47;;;;;;;3.25;92.90;63261.91;5053704;28;20616;-60
2024/01/28 11:32:49;;;;;;;5.93;4.07;;;;;;;3.36;92.06;63274.41;5053703;28;20242;-60